Time;durP1;ratioP1;P1;durP2;ratioP2;P2;SDS_P1;SDS_P2;PMS_P1;PMS_P2;Temp;Humidity;BMP_temperature;BMP_pressure;BME280_temperature;BME280_humidity;BME280_pressure;Samples;Min_cycle;Max_cycle;Signal;HPM_P1;HPM_P2
2021/04/23 00:01:55;;;;;;;0.70;0.70;;;7.00;99.90;;;;;;5108061;27;20205;-67
2021/04/23 00:04:22;;;;;;;0.87;0.80;;;7.00;99.90;;;;;;5111099;27;20514;-67
2021/04/23 00:06:59;;;;;;;2.03;1.30;;;7.00;99.90;;;;;;5112392;27;20215;-68
2021/04/23 00:09:29;;;;;;;2.70;0.60;;;7.00;99.90;;;;;;5111714;27;20283;-67
2021/04/23 00:12:00;;;;;;;1.07;0.97;;;7.00;99.90;;;;;;5110500;28;20200;-68
2021/04/23 00:14:34;;;;;;;1.00;0.63;;;7.00;99.90;;;;;;5109094;27;20270;-67
2021/04/23 00:17:01;;;;;;;0.60;0.60;;;7.00;99.90;;;;;;5110202;27;20587;-67
2021/04/23 00:19:29;;;;;;;1.50;0.77;;;7.00;99.90;;;;;;5112348;27;20199;-67
2021/04/23 00:21:58;;;;;;;1.80;1.20;;;7.00;99.90;;;;;;5110155;27;20227;-67
2021/04/23 00:24:26;;;;;;;4.13;2.20;;;6.90;99.90;;;;;;5111533;27;20199;-68
2021/04/23 00:26:54;;;;;;;1.13;0.70;;;6.90;99.90;;;;;;5110630;28;20249;-68
2021/04/23 00:29:21;;;;;;;0.93;0.70;;;7.00;99.90;;;;;;5109836;28;20263;-69
2021/04/23 00:31:51;;;;;;;0.60;0.50;;;6.80;99.90;;;;;;5108203;28;20207;-68
2021/04/23 00:34:18;;;;;;;0.50;0.50;;;6.80;99.90;;;;;;5109934;28;20204;-67
2021/04/23 00:36:44;;;;;;;0.60;0.33;;;6.90;99.90;;;;;;5110262;28;20543;-68
2021/04/23 00:39:12;;;;;;;1.40;0.63;;;6.90;99.90;;;;;;5106804;28;20196;-68
2021/04/23 00:41:39;;;;;;;0.57;0.33;;;7.00;99.90;;;;;;5105707;28;20204;-68
2021/04/23 00:44:07;;;;;;;0.30;0.30;;;7.00;99.90;;;;;;5107568;28;20211;-67
2021/04/23 00:46:35;;;;;;;1.97;0.37;;;7.00;99.90;;;;;;5105560;28;20244;-67
2021/04/23 00:49:03;;;;;;;0.40;0.40;;;7.10;99.90;;;;;;5111933;28;20203;-67
2021/04/23 00:51:36;;;;;;;0.30;0.30;;;7.10;99.90;;;;;;5108509;28;20677;-67
2021/04/23 00:54:06;;;;;;;1.03;0.40;;;7.20;99.90;;;;;;5097612;28;20338;-67
2021/04/23 00:56:36;;;;;;;0.30;0.30;;;7.20;99.90;;;;;;5110956;28;20717;-67
2021/04/23 00:59:04;;;;;;;0.40;0.40;;;7.20;99.80;;;;;;5102150;28;20203;-67
2021/04/23 01:01:34;;;;;;;0.50;0.50;;;7.30;99.70;;;;;;5107500;28;20200;-69
2021/04/23 01:04:01;;;;;;;0.57;0.37;;;7.30;99.60;;;;;;5110061;28;20195;-67
2021/04/23 01:06:31;;;;;;;0.83;0.50;;;7.40;99.60;;;;;;5110509;28;20202;-67
2021/04/23 01:09:01;;;;;;;0.67;0.40;;;7.40;99.50;;;;;;5110367;28;20196;-67
2021/04/23 01:11:28;;;;;;;0.60;0.40;;;7.40;99.50;;;;;;5110776;28;20206;-68
2021/04/23 01:13:56;;;;;;;0.60;0.40;;;7.40;99.50;;;;;;5109777;28;20208;-67
2021/04/23 01:16:25;;;;;;;1.80;0.50;;;7.40;99.50;;;;;;5123957;27;20226;-68
2021/04/23 01:18:54;;;;;;;1.27;0.60;;;7.40;99.50;;;;;;5110916;28;20206;-68
2021/04/23 01:21:27;;;;;;;0.60;0.60;;;7.40;99.50;;;;;;5113500;28;20215;-67
2021/04/23 01:23:56;;;;;;;0.57;0.50;;;7.20;99.40;;;;;;5109898;28;20187;-67
2021/04/23 01:26:26;;;;;;;1.13;0.60;;;7.40;99.40;;;;;;5089895;27;669213;-68
2021/04/23 01:28:55;;;;;;;0.77;0.70;;;7.30;99.40;;;;;;5116222;27;20286;-67
2021/04/23 01:31:24;;;;;;;0.80;0.80;;;7.30;99.50;;;;;;5109453;27;20551;-68
2021/04/23 01:33:55;;;;;;;0.60;0.50;;;7.30;99.60;;;;;;5120850;27;20194;-67
2021/04/23 01:36:25;;;;;;;0.43;0.43;;;6.50;99.30;;;;;;5105644;28;20295;-67
2021/04/23 01:38:52;;;;;;;1.13;0.60;;;7.30;99.70;;;;;;5104365;27;20207;-67
2021/04/23 01:41:21;;;;;;;0.60;0.50;;;7.30;99.70;;;;;;5110087;27;20196;-67
2021/04/23 01:43:49;;;;;;;1.10;0.60;;;7.30;99.80;;;;;;5104581;28;20187;-66
2021/04/23 01:46:17;;;;;;;0.73;0.70;;;7.20;99.80;;;;;;5110395;27;20205;-68
2021/04/23 01:48:43;;;;;;;0.70;0.70;;;7.20;99.80;;;;;;5106278;27;20674;-67
2021/04/23 01:51:13;;;;;;;1.30;0.80;;;7.10;99.90;;;;;;5109816;27;20204;-67
2021/04/23 01:53:42;;;;;;;0.70;0.70;;;7.10;99.90;;;;;;5107477;28;20287;-67
2021/04/23 01:56:09;;;;;;;2.27;0.80;;;7.00;99.90;;;;;;5107791;28;20226;-67
2021/04/23 01:58:37;;;;;;;0.70;0.60;;;7.00;99.90;;;;;;5112845;27;20204;-67
2021/04/23 02:01:06;;;;;;;0.60;0.50;;;6.90;99.90;;;;;;5105563;27;20207;-67
2021/04/23 02:03:32;;;;;;;2.17;0.73;;;6.90;99.90;;;;;;5108326;27;20626;-67
2021/04/23 02:05:59;;;;;;;2.57;0.50;;;6.90;99.90;;;;;;5109782;28;20196;-67
2021/04/23 02:08:27;;;;;;;0.47;0.47;;;6.90;99.90;;;;;;5110219;28;20692;-67
2021/04/23 02:10:58;;;;;;;1.07;0.60;;;6.90;99.90;;;;;;5107976;28;20192;-67
2021/04/23 02:13:26;;;;;;;1.40;0.50;;;6.90;99.90;;;;;;5110077;27;20187;-67
2021/04/23 02:15:53;;;;;;;0.83;0.70;;;6.90;99.90;;;;;;5108488;27;20538;-67
2021/04/23 02:18:21;;;;;;;2.27;0.70;;;6.90;99.90;;;;;;5110030;28;20336;-68
2021/04/23 02:20:49;;;;;;;3.20;0.87;;;6.90;99.80;;;;;;5108328;27;20294;-68
2021/04/23 02:23:18;;;;;;;2.10;0.80;;;6.90;99.70;;;;;;5114289;27;20670;-67
2021/04/23 02:25:46;;;;;;;3.00;0.97;;;6.90;99.60;;;;;;5110533;27;20225;-67
2021/04/23 02:28:14;;;;;;;0.80;0.80;;;6.80;99.60;;;;;;5107894;27;20284;-67
2021/04/23 02:30:42;;;;;;;0.77;0.73;;;6.80;99.60;;;;;;5114057;27;20188;-67
2021/04/23 02:33:12;;;;;;;0.80;0.80;;;6.80;99.60;;;;;;5108322;28;20250;-68
2021/04/23 02:35:39;;;;;;;0.67;0.60;;;6.70;99.50;;;;;;5109658;28;20203;-68
2021/04/23 02:38:06;;;;;;;1.50;0.60;;;6.70;99.50;;;;;;5111232;27;20223;-67
2021/04/23 02:40:34;;;;;;;0.63;0.40;;;6.70;99.60;;;;;;5119157;27;20199;-68
2021/04/23 02:43:05;;;;;;;1.33;0.60;;;6.70;99.50;;;;;;5108623;27;20204;-67
2021/04/23 02:45:35;;;;;;;1.30;0.60;;;6.60;99.40;;;;;;5108466;28;20291;-67
2021/04/23 02:48:03;;;;;;;2.60;0.90;;;6.60;99.30;;;;;;5109557;28;20195;-67
2021/04/23 02:50:30;;;;;;;1.23;0.77;;;6.60;99.20;;;;;;5109519;28;20196;-67
2021/04/23 02:52:58;;;;;;;1.00;0.80;;;6.60;99.30;;;;;;5107941;28;20253;-67
2021/04/23 02:55:26;;;;;;;0.70;0.70;;;6.60;99.20;;;;;;5104634;28;20188;-68
2021/04/23 02:58:04;;;;;;;0.70;0.70;;;6.60;99.20;;;;;;5107925;27;20575;-67
2021/04/23 03:00:35;;;;;;;2.47;0.80;;;6.60;99.00;;;;;;5108339;27;20200;-67
2021/04/23 03:03:02;;;;;;;1.20;0.77;;;6.60;99.00;;;;;;5101754;28;20249;-66
2021/04/23 03:05:29;;;;;;;4.10;1.10;;;6.60;99.10;;;;;;5102668;28;20192;-67
2021/04/23 03:07:58;;;;;;;0.57;0.57;;;6.60;99.10;;;;;;5107495;28;20188;-67
2021/04/23 03:10:27;;;;;;;0.80;0.73;;;6.60;99.20;;;;;;5101219;28;20199;-67
2021/04/23 03:13:02;;;;;;;2.37;0.73;;;6.60;99.30;;;;;;5108745;28;20200;-67
2021/04/23 03:15:29;;;;;;;0.90;0.70;;;6.50;99.30;;;;;;5100457;28;20249;-67
2021/04/23 03:17:57;;;;;;;3.03;0.97;;;6.50;99.30;;;;;;5104384;28;20596;-66
2021/04/23 03:20:26;;;;;;;2.60;1.10;;;6.50;99.40;;;;;;5108430;28;20625;-67
2021/04/23 03:22:54;;;;;;;1.20;1.10;;;6.50;99.60;;;;;;5109984;28;20367;-67
2021/04/23 03:25:21;;;;;;;4.40;1.33;;;6.50;99.70;;;;;;5108651;28;20231;-67
2021/04/23 03:27:48;;;;;;;1.10;1.00;;;6.50;99.70;;;;;;5115454;27;20192;-67
2021/04/23 03:30:18;;;;;;;3.17;1.20;;;6.50;99.80;;;;;;5105950;28;20282;-68
2021/04/23 03:32:45;;;;;;;1.77;0.93;;;6.50;99.80;;;;;;5108666;28;20568;-67
2021/04/23 03:35:13;;;;;;;1.03;0.80;;;6.50;99.90;;;;;;5108033;28;20272;-68
2021/04/23 03:37:42;;;;;;;2.10;1.10;;;6.50;99.90;;;;;;5111071;28;20218;-66
2021/04/23 03:40:11;;;;;;;3.67;1.30;;;6.50;99.90;;;;;;5109618;28;20195;-68
2021/04/23 03:42:38;;;;;;;2.17;1.23;;;6.50;99.90;;;;;;5108588;28;21113;-67
2021/04/23 03:45:06;;;;;;;1.37;0.97;;;6.50;99.90;;;;;;5111693;28;20666;-68
2021/04/23 03:47:33;;;;;;;1.33;0.90;;;6.40;99.90;;;;;;5108516;28;20286;-66
2021/04/23 03:49:59;;;;;;;1.53;0.80;;;6.40;99.90;;;;;;5114460;28;20187;-67
2021/04/23 03:52:27;;;;;;;3.00;1.00;;;6.40;99.90;;;;;;5113923;28;20192;-67
2021/04/23 03:54:54;;;;;;;2.90;1.23;;;6.40;99.90;;;;;;5113711;28;20198;-67
2021/04/23 03:57:20;;;;;;;3.23;1.03;;;6.40;99.90;;;;;;5095254;28;20224;-67
2021/04/23 03:59:47;;;;;;;2.67;1.10;;;6.40;99.90;;;;;;5109569;28;20249;-67
2021/04/23 04:02:14;;;;;;;1.83;1.00;;;6.50;99.90;;;;;;5100126;28;20259;-67
2021/04/23 04:04:40;;;;;;;1.97;1.30;;;6.50;99.90;;;;;;5103113;28;20695;-67
2021/04/23 04:07:07;;;;;;;1.30;1.10;;;6.60;99.90;;;;;;5108590;28;20226;-67
2021/04/23 04:09:35;;;;;;;1.83;1.10;;;6.60;99.90;;;;;;5108534;28;20202;-67
2021/04/23 04:12:01;;;;;;;1.30;1.20;;;6.70;99.90;;;;;;5107250;28;20248;-67
2021/04/23 04:14:28;;;;;;;1.40;1.20;;;6.70;99.90;;;;;;5104999;28;20216;-67
2021/04/23 04:16:55;;;;;;;5.30;1.50;;;6.70;99.90;;;;;;5111075;27;20560;-67
2021/04/23 04:19:21;;;;;;;3.40;1.20;;;6.70;99.90;;;;;;5112956;27;20701;-67
2021/04/23 04:21:48;;;;;;;1.80;1.00;;;6.70;99.90;;;;;;5113069;27;20723;-67
2021/04/23 04:24:15;;;;;;;3.27;1.30;;;6.70;99.90;;;;;;5110493;28;20688;-67
2021/04/23 04:26:42;;;;;;;2.73;0.90;;;6.70;99.90;;;;;;5111872;27;20219;-67
2021/04/23 04:29:09;;;;;;;3.97;1.60;;;6.80;99.90;;;;;;5110361;27;20195;-67
2021/04/23 04:31:35;;;;;;;1.73;1.30;;;6.80;99.90;;;;;;5110977;27;20188;-67
2021/04/23 04:34:02;;;;;;;4.30;1.20;;;6.90;99.90;;;;;;5111994;27;20531;-67
2021/04/23 04:36:29;;;;;;;2.40;1.30;;;7.00;99.90;;;;;;5110672;27;20528;-67
2021/04/23 04:38:56;;;;;;;1.77;1.20;;;7.00;99.90;;;;;;5110711;28;20199;-67
2021/04/23 04:41:23;;;;;;;1.97;1.30;;;7.00;99.90;;;;;;5107477;27;20192;-68
2021/04/23 04:43:50;;;;;;;3.37;1.30;;;7.00;99.90;;;;;;5111659;27;20208;-67
2021/04/23 04:46:17;;;;;;;2.00;1.40;;;7.00;99.90;;;;;;5110337;27;20196;-67
2021/04/23 04:48:44;;;;;;;1.73;1.10;;;7.10;99.90;;;;;;5110659;27;20214;-67
2021/04/23 04:51:10;;;;;;;1.43;1.10;;;7.10;99.90;;;;;;5111795;27;20202;-67
2021/04/23 04:53:37;;;;;;;3.40;1.20;;;7.20;99.90;;;;;;5112264;27;20207;-67
2021/04/23 04:56:04;;;;;;;1.57;1.10;;;7.20;99.90;;;;;;5110425;27;20628;-67
2021/04/23 04:58:33;;;;;;;1.50;1.10;;;7.30;99.90;;;;;;5110700;27;20663;-66
2021/04/23 05:01:03;;;;;;;1.90;1.30;;;7.40;99.90;;;;;;5109656;27;20292;-67
2021/04/23 05:03:29;;;;;;;1.10;1.07;;;7.50;99.90;;;;;;5103696;27;20192;-67
2021/04/23 05:05:56;;;;;;;2.63;1.10;;;7.60;99.90;;;;;;5111747;27;20192;-68
2021/04/23 05:08:23;;;;;;;1.47;1.23;;;7.70;99.90;;;;;;5111564;27;20200;-67
2021/04/23 05:10:50;;;;;;;1.57;1.10;;;7.80;99.90;;;;;;5108387;27;20192;-67
2021/04/23 05:13:16;;;;;;;1.73;1.10;;;7.80;99.90;;;;;;5110122;27;20203;-67
2021/04/23 05:15:43;;;;;;;1.93;1.10;;;7.80;99.90;;;;;;5099547;28;20448;-67
2021/04/23 05:18:11;;;;;;;0.83;0.83;;;7.90;99.90;;;;;;5108041;27;20232;-67
2021/04/23 05:20:38;;;;;;;1.27;0.70;;;8.00;99.90;;;;;;5111034;27;20196;-68
2021/04/23 05:23:05;;;;;;;4.50;1.30;;;8.10;99.90;;;;;;5109993;27;20676;-67
2021/04/23 05:25:33;;;;;;;1.97;1.00;;;8.30;99.90;;;;;;5108574;27;20759;-67
2021/04/23 05:27:59;;;;;;;1.20;1.10;;;8.60;99.90;;;;;;5110797;27;20331;-67
2021/04/23 05:30:29;;;;;;;2.70;1.40;;;8.70;99.00;;;;;;5110060;27;20209;-67
2021/04/23 05:32:57;;;;;;;1.53;1.20;;;8.80;98.60;;;;;;5111006;27;20626;-67
2021/04/23 05:35:27;;;;;;;4.97;1.40;;;9.00;98.50;;;;;;5110706;27;20736;-67
2021/04/23 05:37:54;;;;;;;1.10;1.00;;;9.30;97.90;;;;;;5109669;27;20242;-67
2021/04/23 05:40:28;;;;;;;0.70;0.70;;;9.70;96.90;;;;;;5109831;27;20203;-67
2021/04/23 05:42:55;;;;;;;1.03;0.70;;;9.90;96.10;;;;;;5109215;27;20200;-68
2021/04/23 05:45:22;;;;;;;1.60;0.67;;;10.30;94.40;;;;;;5108436;27;20215;-67
2021/04/23 05:47:49;;;;;;;1.93;0.87;;;10.60;93.60;;;;;;5110741;27;20189;-68
2021/04/23 05:50:17;;;;;;;2.67;0.80;;;11.10;92.10;;;;;;5110109;27;20609;-67
2021/04/23 05:52:46;;;;;;;1.50;0.80;;;11.50;90.90;;;;;;5110682;27;20222;-68
2021/04/23 05:55:15;;;;;;;0.70;0.70;;;12.00;89.30;;;;;;5106256;27;20199;-68
2021/04/23 05:57:42;;;;;;;1.80;1.03;;;12.60;85.30;;;;;;5108477;27;20222;-68
2021/04/23 06:00:12;;;;;;;1.03;0.80;;;13.20;80.80;;;;;;5109225;27;20607;-68
2021/04/23 06:02:42;;;;;;;1.00;0.90;;;14.00;76.70;;;;;;5104801;28;20286;-67
2021/04/23 06:05:10;;;;;;;1.57;0.90;;;15.20;72.40;;;;;;5107983;27;20198;-68
2021/04/23 06:07:37;;;;;;;2.30;1.00;;;16.30;67.70;;;;;;5108609;28;20601;-68
2021/04/23 06:10:07;;;;;;;1.00;1.00;;;17.40;64.00;;;;;;5105852;27;20198;-68
2021/04/23 06:12:34;;;;;;;1.70;0.97;;;18.20;59.00;;;;;;5108242;28;20554;-68
2021/04/23 06:15:01;;;;;;;2.47;1.27;;;18.80;57.50;;;;;;5109069;27;20196;-68
2021/04/23 06:17:27;;;;;;;1.47;1.30;;;19.60;56.40;;;;;;5109487;28;20217;-68
2021/04/23 06:19:54;;;;;;;1.50;1.10;;;20.30;54.90;;;;;;5096902;27;20426;-68
2021/04/23 06:22:21;;;;;;;1.40;1.30;;;20.60;53.20;;;;;;5102696;28;20199;-67
2021/04/23 06:24:48;;;;;;;1.27;1.17;;;21.50;51.80;;;;;;5105915;28;20215;-68
2021/04/23 06:27:16;;;;;;;2.10;1.00;;;22.30;51.30;;;;;;5105163;27;20208;-68
2021/04/23 06:29:43;;;;;;;2.73;1.13;;;23.00;49.30;;;;;;5116165;27;20799;-67
2021/04/23 06:32:10;;;;;;;1.10;1.00;;;23.50;47.50;;;;;;5105810;28;20199;-68
2021/04/23 06:34:37;;;;;;;1.10;1.00;;;24.00;46.50;;;;;;5104793;28;20210;-68
2021/04/23 06:37:04;;;;;;;2.13;1.30;;;24.20;45.00;;;;;;5105728;27;20219;-68
2021/04/23 06:39:30;;;;;;;1.58;1.00;;;24.30;43.60;;;;;;5106807;27;20219;-69
2021/04/23 06:41:57;;;;;;;0.90;0.90;;;24.20;43.00;;;;;;5102665;28;20202;-69
2021/04/23 06:44:25;;;;;;;1.08;0.98;;;24.20;42.00;;;;;;5104824;28;20223;-69
2021/04/23 06:46:51;;;;;;;1.50;1.00;;;24.10;41.40;;;;;;5104949;28;20184;-69
2021/04/23 06:49:19;;;;;;;1.40;0.90;;;24.30;41.70;;;;;;5104848;28;20202;-69
2021/04/23 06:51:46;;;;;;;2.28;1.00;;;24.80;41.00;;;;;;5107211;27;20241;-69
2021/04/23 06:54:14;;;;;;;1.48;0.90;;;25.20;39.30;;;;;;5105320;27;20195;-68
2021/04/23 06:56:41;;;;;;;0.98;0.80;;;25.50;37.90;;;;;;5105215;27;20354;-68
2021/04/23 06:59:08;;;;;;;1.00;0.90;;;25.90;37.50;;;;;;5104462;28;20291;-67
2021/04/23 07:01:35;;;;;;;1.05;0.90;;;26.30;37.20;;;;;;5099855;28;20543;-67
2021/04/23 07:04:02;;;;;;;0.90;0.90;;;26.50;36.10;;;;;;5105724;27;20427;-67
2021/04/23 07:06:29;;;;;;;1.52;1.25;;;26.30;36.00;;;;;;5097341;28;20235;-68
2021/04/23 07:08:56;;;;;;;2.63;1.17;;;26.60;35.50;;;;;;5096623;27;20192;-68
2021/04/23 07:11:25;;;;;;;1.15;0.75;;;26.80;34.40;;;;;;5105603;28;20207;-67
2021/04/23 07:13:52;;;;;;;1.08;0.93;;;26.80;33.80;;;;;;5110615;28;20249;-68
2021/04/23 07:16:19;;;;;;;1.95;0.93;;;26.70;34.00;;;;;;5086565;28;20630;-67
2021/04/23 07:18:46;;;;;;;1.02;0.93;;;26.80;34.10;;;;;;5104241;27;20203;-68
2021/04/23 07:21:13;;;;;;;1.63;0.80;;;27.00;34.00;;;;;;5111297;28;20434;-67
2021/04/23 07:23:40;;;;;;;1.23;0.90;;;27.20;33.20;;;;;;5105088;28;20222;-67
2021/04/23 07:26:06;;;;;;;0.90;0.90;;;27.40;32.50;;;;;;5107849;28;20773;-68
2021/04/23 07:28:33;;;;;;;5.28;1.20;;;27.60;31.30;;;;;;5108973;28;20195;-68
2021/04/23 07:31:00;;;;;;;2.85;0.80;;;27.50;30.50;;;;;;5113787;28;20191;-67
2021/04/23 07:33:26;;;;;;;0.80;0.80;;;27.80;30.30;;;;;;5105253;28;20192;-67
2021/04/23 07:35:54;;;;;;;0.68;0.68;;;28.40;30.00;;;;;;5106492;28;20203;-67
2021/04/23 07:38:21;;;;;;;0.93;0.88;;;29.00;29.60;;;;;;5112707;28;20225;-67
2021/04/23 07:40:48;;;;;;;1.27;0.90;;;29.70;28.70;;;;;;5101336;28;20188;-68
2021/04/23 07:43:15;;;;;;;1.42;1.10;;;30.00;28.20;;;;;;5107159;28;20252;-67
2021/04/23 07:45:42;;;;;;;0.82;0.82;;;31.10;27.20;;;;;;5109207;28;20195;-68
2021/04/23 07:48:09;;;;;;;2.65;0.90;;;32.70;26.80;;;;;;5107766;27;20708;-68
2021/04/23 07:50:35;;;;;;;0.90;0.90;;;34.20;25.30;;;;;;5116482;27;20224;-68
2021/04/23 07:53:03;;;;;;;0.70;0.70;;;35.30;24.60;;;;;;5110382;27;20188;-68
2021/04/23 07:55:30;;;;;;;1.77;1.25;;;36.50;24.10;;;;;;5108341;27;20559;-68
2021/04/23 07:57:58;;;;;;;1.10;1.00;;;37.60;22.70;;;;;;5108210;27;20215;-68
2021/04/23 08:00:26;;;;;;;1.10;1.10;;;37.50;22.10;;;;;;5110628;27;20202;-68
2021/04/23 08:02:56;;;;;;;0.80;0.80;;;37.80;21.50;;;;;;5106412;28;20354;-68
2021/04/23 08:05:25;;;;;;;1.05;0.90;;;36.60;21.90;;;;;;5115775;27;20204;-67
2021/04/23 08:07:51;;;;;;;2.58;0.90;;;36.20;21.70;;;;;;5122401;27;20564;-68
2021/04/23 08:10:21;;;;;;;0.80;0.80;;;36.60;20.40;;;;;;5115699;27;20690;-67
2021/04/23 08:12:48;;;;;;;1.00;1.00;;;36.70;20.10;;;;;;5108572;27;20207;-67
2021/04/23 08:15:16;;;;;;;1.98;0.90;;;37.50;20.30;;;;;;5108703;27;20200;-67
2021/04/23 08:17:43;;;;;;;0.90;0.90;;;38.40;19.60;;;;;;5111819;27;20391;-67
2021/04/23 08:20:11;;;;;;;0.80;0.80;;;38.70;19.70;;;;;;5103213;27;20569;-68
2021/04/23 08:22:38;;;;;;;1.00;1.00;;;39.00;18.30;;;;;;5109859;27;20196;-68
2021/04/23 08:25:06;;;;;;;0.90;0.90;;;38.90;17.80;;;;;;5115868;27;20742;-67
2021/04/23 08:27:33;;;;;;;4.97;1.00;;;38.30;17.40;;;;;;5110389;27;20212;-67
2021/04/23 08:30:00;;;;;;;0.80;0.80;;;38.10;17.60;;;;;;5105957;27;20204;-68
2021/04/23 08:32:27;;;;;;;1.67;1.20;;;38.60;18.00;;;;;;5111577;27;20243;-68
2021/04/23 08:34:56;;;;;;;1.02;1.02;;;39.00;17.20;;;;;;5113071;27;20214;-68
2021/04/23 08:37:23;;;;;;;1.10;1.00;;;39.30;17.60;;;;;;5103925;27;20192;-67
2021/04/23 08:39:50;;;;;;;0.90;0.90;;;39.70;17.10;;;;;;5104454;27;20196;-67
2021/04/23 08:42:17;;;;;;;2.75;1.00;;;40.20;17.30;;;;;;5107673;27;20199;-69
2021/04/23 08:44:45;;;;;;;0.90;0.90;;;40.90;17.30;;;;;;5106641;27;20319;-69
2021/04/23 08:47:14;;;;;;;1.20;1.10;;;41.90;17.30;;;;;;5108088;27;20774;-68
2021/04/23 08:49:45;;;;;;;1.20;1.20;;;42.60;16.80;;;;;;5107999;27;20210;-68
2021/04/23 08:52:12;;;;;;;1.27;1.27;;;43.40;16.80;;;;;;5107324;27;20199;-69
2021/04/23 08:54:39;;;;;;;1.23;1.20;;;43.60;15.30;;;;;;5107932;27;20195;-68
2021/04/23 08:57:08;;;;;;;1.40;1.40;;;43.30;15.30;;;;;;5107956;27;20721;-68
2021/04/23 08:59:35;;;;;;;1.00;1.00;;;42.70;14.70;;;;;;5109107;27;20566;-68
2021/04/23 09:02:03;;;;;;;1.23;1.13;;;41.90;14.70;;;;;;5102668;27;20570;-68
2021/04/23 09:04:30;;;;;;;1.50;1.40;;;41.50;15.10;;;;;;5108652;27;20594;-68
2021/04/23 09:07:01;;;;;;;1.40;1.30;;;42.00;15.40;;;;;;5105356;28;20215;-68
2021/04/23 09:09:35;;;;;;;1.30;1.30;;;42.50;15.40;;;;;;5105342;27;20667;-68
2021/04/23 09:12:19;;;;;;;1.30;1.30;;;43.40;15.70;;;;;;5099352;27;20203;-68
2021/04/23 09:14:47;;;;;;;1.92;1.42;;;44.70;15.60;;;;;;5104667;28;20223;-68
2021/04/23 09:17:19;;;;;;;1.20;1.20;;;45.40;15.30;;;;;;5103849;28;20199;-68
2021/04/23 09:19:47;;;;;;;1.30;1.25;;;44.40;14.80;;;;;;5104196;28;20674;-68
2021/04/23 09:22:26;;;;;;;1.40;1.40;;;43.50;15.10;;;;;;5104724;28;20319;-68
2021/04/23 09:24:58;;;;;;;1.17;1.17;;;43.70;15.10;;;;;;5102228;28;20199;-68
2021/04/23 09:27:27;;;;;;;1.15;1.15;;;44.10;14.80;;;;;;5101654;28;20240;-67
2021/04/23 09:29:56;;;;;;;1.23;1.23;;;44.00;14.50;;;;;;5120795;27;20195;-67
2021/04/23 09:32:26;;;;;;;1.23;1.23;;;44.20;14.50;;;;;;5107107;28;20195;-67
2021/04/23 09:34:59;;;;;;;9.68;3.67;;;43.90;14.20;;;;;;5106261;28;20187;-67
2021/04/23 09:37:28;;;;;;;24.80;5.18;;;43.40;14.30;;;;;;5106705;28;20196;-67
2021/04/23 09:40:08;;;;;;;5.40;2.22;;;43.40;14.20;;;;;;5102766;28;20196;-67
2021/04/23 09:42:44;;;;;;;1.40;1.33;;;43.80;14.40;;;;;;5105897;28;20322;-67
2021/04/23 09:45:13;;;;;;;1.70;1.10;;;43.90;13.90;;;;;;5104584;28;20241;-67
2021/04/23 09:47:41;;;;;;;1.10;1.10;;;43.30;13.50;;;;;;5102067;28;20287;-68
2021/04/23 09:50:09;;;;;;;1.05;0.95;;;42.50;13.80;;;;;;5108732;27;20184;-68
2021/04/23 09:52:48;;;;;;;0.85;0.82;;;40.70;13.40;;;;;;5106705;27;20211;-67
2021/04/23 09:55:16;;;;;;;6.93;1.10;;;37.90;14.20;;;;;;5105553;28;20199;-68
2021/04/23 09:57:49;;;;;;;0.70;0.70;;;36.80;14.60;;;;;;5105863;28;20188;-68
2021/04/23 10:00:18;;;;;;;0.93;0.93;;;34.90;15.00;;;;;;5104873;28;20192;-68
2021/04/23 10:02:49;;;;;;;0.80;0.80;;;34.10;15.70;;;;;;5102114;27;20219;-68
2021/04/23 10:05:46;;;;;;;0.80;0.77;;;34.10;15.90;;;;;;5105320;28;20196;-68
2021/04/23 10:08:24;;;;;;;0.60;0.60;;;32.70;16.00;;;;;;5103597;27;20234;-68
2021/04/23 10:10:53;;;;;;;0.75;0.75;;;30.70;16.60;;;;;;5100660;28;20196;-67
2021/04/23 10:13:28;;;;;;;0.60;0.60;;;28.80;17.20;;;;;;5104760;27;20427;-68
2021/04/23 10:15:56;;;;;;;0.95;0.70;;;27.40;18.00;;;;;;5102141;28;20197;-68
2021/04/23 10:18:24;;;;;;;0.90;0.90;;;27.40;18.60;;;;;;5102119;27;20687;-68
2021/04/23 10:20:54;;;;;;;0.60;0.60;;;29.10;18.40;;;;;;5106423;27;20198;-68
2021/04/23 10:23:23;;;;;;;0.75;0.75;;;31.00;18.00;;;;;;5104516;27;20244;-68
2021/04/23 10:25:51;;;;;;;0.60;0.60;;;32.20;17.60;;;;;;5104557;28;20239;-68
2021/04/23 10:28:19;;;;;;;0.80;0.80;;;31.60;17.50;;;;;;5102628;28;20220;-68
2021/04/23 10:30:47;;;;;;;0.88;0.70;;;32.30;17.70;;;;;;5106444;27;20188;-68
2021/04/23 10:33:16;;;;;;;0.75;0.60;;;33.00;17.40;;;;;;5106081;27;20200;-68
2021/04/23 10:35:45;;;;;;;1.75;0.70;;;32.10;17.70;;;;;;5105357;27;20233;-68
2021/04/23 10:38:14;;;;;;;0.82;0.70;;;30.70;17.40;;;;;;5104697;28;20192;-67
2021/04/23 10:40:43;;;;;;;0.65;0.65;;;29.20;17.70;;;;;;5102280;28;20198;-68
2021/04/23 10:43:13;;;;;;;0.60;0.60;;;27.90;18.10;;;;;;5104807;28;20195;-68
2021/04/23 10:45:42;;;;;;;0.60;0.60;;;26.70;18.60;;;;;;5100870;28;20283;-68
2021/04/23 10:48:26;;;;;;;1.30;0.93;;;25.60;18.80;;;;;;5103405;28;20220;-68
2021/04/23 10:50:57;;;;;;;1.10;1.00;;;25.20;19.30;;;;;;5101368;27;20264;-68
2021/04/23 10:53:46;;;;;;;0.90;0.90;;;26.70;19.40;;;;;;5103338;28;20340;-67
2021/04/23 10:56:28;;;;;;;5.97;1.30;;;28.60;18.90;;;;;;5119249;27;20207;-67
2021/04/23 10:58:56;;;;;;;1.65;0.90;;;29.20;18.20;;;;;;5104977;28;20589;-67
2021/04/23 11:01:27;;;;;;;0.75;0.73;;;27.70;18.40;;;;;;5101558;28;20252;-67
2021/04/23 11:04:10;;;;;;;0.75;0.70;;;26.00;18.90;;;;;;5104663;28;20206;-67
2021/04/23 11:06:39;;;;;;;1.30;0.75;;;25.90;19.40;;;;;;5102947;28;20203;-67
2021/04/23 11:09:13;;;;;;;0.50;0.50;;;26.00;19.20;;;;;;5105367;28;20302;-67
2021/04/23 11:11:41;;;;;;;0.77;0.77;;;25.00;19.20;;;;;;5104078;28;20191;-67
2021/04/23 11:14:26;;;;;;;0.60;0.60;;;24.60;19.50;;;;;;5102986;28;20208;-67
2021/04/23 11:16:54;;;;;;;0.65;0.65;;;24.10;19.50;;;;;;5103229;28;20208;-67
2021/04/23 11:19:37;;;;;;;0.68;0.65;;;24.20;19.70;;;;;;5105536;28;20224;-68
2021/04/23 11:22:13;;;;;;;1.30;0.60;;;24.10;19.70;;;;;;5102767;28;21114;-67
2021/04/23 11:24:56;;;;;;;0.60;0.60;;;23.90;19.60;;;;;;5107678;27;20484;-67
2021/04/23 11:27:23;;;;;;;0.85;0.60;;;24.10;19.80;;;;;;5109812;27;20226;-67
2021/04/23 11:30:08;;;;;;;0.55;0.55;;;24.90;19.80;;;;;;5108674;27;20552;-66
2021/04/23 11:32:52;;;;;;;0.70;0.70;;;25.40;19.90;;;;;;5106474;27;20268;-68
2021/04/23 11:35:22;;;;;;;3.03;1.00;;;25.30;19.40;;;;;;5107319;28;20230;-67
2021/04/23 11:37:52;;;;;;;2.33;0.80;;;25.90;19.60;;;;;;5108893;27;20474;-68
2021/04/23 11:40:21;;;;;;;0.73;0.73;;;26.60;19.60;;;;;;5109412;27;20196;-68
2021/04/23 11:42:50;;;;;;;2.55;0.90;;;27.10;19.40;;;;;;5108265;27;20188;-68
2021/04/23 11:45:18;;;;;;;2.53;0.70;;;27.60;19.10;;;;;;5107339;28;20267;-68
2021/04/23 11:47:46;;;;;;;0.80;0.70;;;27.30;18.80;;;;;;5106578;27;20705;-68
2021/04/23 11:50:17;;;;;;;3.47;0.80;;;27.00;19.00;;;;;;5104751;27;20258;-68
2021/04/23 11:52:47;;;;;;;1.17;1.05;;;26.80;18.90;;;;;;5105005;27;20234;-68
2021/04/23 11:55:18;;;;;;;1.08;0.88;;;26.70;19.00;;;;;;5106527;27;20209;-68
2021/04/23 11:57:46;;;;;;;1.95;0.93;;;26.80;19.30;;;;;;5108465;27;20207;-68
2021/04/23 12:00:16;;;;;;;4.18;1.38;;;26.50;19.00;;;;;;5106371;27;20207;-69
2021/04/23 12:02:46;;;;;;;6.50;1.30;;;25.80;19.10;;;;;;5104649;27;20946;-68
2021/04/23 12:05:24;;;;;;;3.80;1.45;;;25.10;19.30;;;;;;5109047;28;20211;-67
2021/04/23 12:07:52;;;;;;;1.48;0.88;;;24.50;19.70;;;;;;5106958;28;20212;-68
2021/04/23 12:10:21;;;;;;;0.70;0.70;;;23.90;19.30;;;;;;5123463;27;20554;-68
2021/04/23 12:12:48;;;;;;;0.50;0.50;;;23.10;19.50;;;;;;5108053;27;20192;-67
2021/04/23 12:15:21;;;;;;;0.70;0.70;;;22.40;19.80;;;;;;5106151;27;20271;-68
2021/04/23 12:17:48;;;;;;;0.77;0.77;;;21.70;20.20;;;;;;5107159;27;20516;-67
2021/04/23 12:20:17;;;;;;;2.20;0.60;;;20.90;20.30;;;;;;5106294;27;20215;-67
2021/04/23 12:22:44;;;;;;;2.72;0.60;;;20.30;20.90;;;;;;5108584;27;20803;-67
2021/04/23 12:25:21;;;;;;;0.70;0.50;;;19.80;21.30;;;;;;5108180;27;20228;-67
2021/04/23 12:27:47;;;;;;;5.38;0.80;;;19.10;21.50;;;;;;5108233;28;20219;-68
2021/04/23 12:30:28;;;;;;;1.15;0.70;;;18.60;22.10;;;;;;5107381;28;20199;-68
2021/04/23 12:32:56;;;;;;;0.60;0.60;;;18.20;22.30;;;;;;5107168;27;20285;-68
2021/04/23 12:35:35;;;;;;;1.27;0.50;;;17.80;22.40;;;;;;5105667;27;20201;-67
2021/04/23 12:38:01;;;;;;;0.40;0.40;;;17.40;22.60;;;;;;5105677;27;20198;-67
2021/04/23 12:40:35;;;;;;;0.30;0.30;;;17.10;22.60;;;;;;5106288;28;20192;-68
2021/04/23 12:43:13;;;;;;;0.50;0.50;;;16.90;22.50;;;;;;5106949;27;20220;-68
2021/04/23 12:45:46;;;;;;;0.47;0.47;;;16.70;22.70;;;;;;5104944;27;20676;-68
2021/04/23 12:48:13;;;;;;;2.27;0.40;;;16.60;22.80;;;;;;5105748;27;20216;-68
2021/04/23 12:50:41;;;;;;;1.30;0.63;;;16.70;23.00;;;;;;5108665;27;20442;-69
2021/04/23 12:53:08;;;;;;;0.43;0.43;;;16.70;23.00;;;;;;5107693;28;20194;-68
2021/04/23 12:55:38;;;;;;;0.60;0.60;;;16.80;23.00;;;;;;5107116;28;20204;-68
2021/04/23 12:58:04;;;;;;;1.60;0.67;;;16.70;22.90;;;;;;5108023;27;20199;-68
2021/04/23 13:00:34;;;;;;;3.17;0.57;;;16.60;22.90;;;;;;5102961;27;20253;-68